Time;durP1;ratioP1;P1;durP2;ratioP2;P2;SDS_P1;SDS_P2;PMS_P1;PMS_P2;Temp;Humidity;BMP_temperature;BMP_pressure;BME280_temperature;BME280_humidity;BME280_pressure;Samples;Min_cycle;Max_cycle;Signal;HPM_P1;HPM_P2
2021/11/02 00:00:53;;;;;;;4.95;2.60;;;;;;;;;;5074892;28;20497;-77
2021/11/02 00:03:19;;;;;;;7.07;2.47;;;;;;;;;;5074927;28;20035;-77
2021/11/02 00:05:44;;;;;;;6.63;2.55;;;;;;;;;;5073863;28;20035;-77
2021/11/02 00:08:11;;;;;;;8.45;3.08;;;;;;;;;;5074738;28;20512;-78
2021/11/02 00:10:36;;;;;;;5.90;3.53;;;;;;;;;;5071309;28;20044;-77
2021/11/02 00:13:03;;;;;;;7.70;2.88;;;;;;;;;;5054834;28;20028;-77
2021/11/02 00:15:30;;;;;;;9.18;2.35;;;;;;;;;;5054913;28;20037;-78
2021/11/02 00:18:01;;;;;;;5.40;1.92;;;;;;;;;;5053731;28;20029;-78
2021/11/02 00:20:26;;;;;;;6.85;3.20;;;;;;;;;;5054608;28;20135;-78
2021/11/02 00:22:59;;;;;;;8.45;2.97;;;;;;;;;;5053644;28;20120;-79
2021/11/02 00:25:26;;;;;;;11.98;3.47;;;;;;;;;;5054812;28;20087;-77
2021/11/02 00:27:52;;;;;;;10.65;2.40;;;;;;;;;;5053506;28;20067;-77
2021/11/02 00:30:19;;;;;;;9.00;2.00;;;;;;;;;;5053478;28;20024;-78
2021/11/02 00:32:47;;;;;;;10.77;3.83;;;;;;;;;;5054601;28;20044;-77
2021/11/02 00:35:14;;;;;;;15.55;5.22;;;;;;;;;;5053166;28;20037;-78
2021/11/02 00:37:40;;;;;;;14.05;5.65;;;;;;;;;;5053101;28;20125;-78
2021/11/02 00:40:08;;;;;;;12.20;5.93;;;;;;;;;;5054074;28;20032;-77
2021/11/02 00:42:49;;;;;;;8.68;4.10;;;;;;;;;;5052477;28;20037;-78
2021/11/02 00:45:17;;;;;;;7.68;4.65;;;;;;;;;;5052193;28;20033;-77
2021/11/02 00:47:42;;;;;;;8.98;4.38;;;;;;;;;;5054223;28;20025;-78
2021/11/02 00:50:10;;;;;;;11.10;3.80;;;;;;;;;;5053425;28;20174;-77
2021/11/02 00:52:38;;;;;;;11.23;3.95;;;;;;;;;;5053019;28;20082;-78
2021/11/02 00:55:05;;;;;;;8.60;3.38;;;;;;;;;;5053978;28;20548;-77
2021/11/02 00:57:31;;;;;;;8.73;3.90;;;;;;;;;;5046560;28;20076;-78
2021/11/02 00:59:56;;;;;;;5.82;3.60;;;;;;;;;;5032487;28;20057;-77
2021/11/02 01:02:22;;;;;;;13.43;4.22;;;;;;;;;;5032677;28;20033;-78
2021/11/02 01:04:48;;;;;;;9.20;4.43;;;;;;;;;;5033597;28;20041;-77
2021/11/02 01:07:14;;;;;;;5.13;3.10;;;;;;;;;;5032764;28;20060;-78
2021/11/02 01:09:40;;;;;;;11.27;3.83;;;;;;;;;;5044416;28;20055;-77
2021/11/02 01:12:06;;;;;;;9.27;3.97;;;;;;;;;;5053849;28;20040;-77
2021/11/02 01:14:32;;;;;;;9.85;4.45;;;;;;;;;;5053366;28;20029;-78
2021/11/02 01:16:57;;;;;;;14.90;4.25;;;;;;;;;;5052837;28;20037;-78
2021/11/02 01:19:24;;;;;;;9.32;4.30;;;;;;;;;;5052554;28;20029;-78
2021/11/02 01:21:50;;;;;;;13.75;4.38;;;;;;;;;;5035776;28;20410;-78
2021/11/02 01:24:15;;;;;;;8.52;4.50;;;;;;;;;;5052804;28;20765;-77
2021/11/02 01:26:41;;;;;;;17.38;5.20;;;;;;;;;;5054028;28;20471;-78
2021/11/02 01:29:07;;;;;;;11.65;5.20;;;;;;;;;;5052295;28;20075;-77
2021/11/02 01:31:34;;;;;;;33.58;5.35;;;;;;;;;;5053623;28;20071;-78
2021/11/02 01:34:00;;;;;;;20.30;5.57;;;;;;;;;;5052314;28;20036;-77
2021/11/02 01:36:27;;;;;;;14.50;5.30;;;;;;;;;;5053643;28;20032;-78
2021/11/02 01:38:57;;;;;;;13.52;4.53;;;;;;;;;;5052182;28;20037;-77
2021/11/02 01:41:25;;;;;;;8.18;4.00;;;;;;;;;;5052248;28;20055;-77
2021/11/02 01:43:57;;;;;;;14.90;4.25;;;;;;;;;;5052341;28;20040;-78
2021/11/02 01:46:25;;;;;;;23.05;4.93;;;;;;;;;;5052267;28;20047;-78
2021/11/02 01:48:55;;;;;;;13.68;5.05;;;;;;;;;;5052468;28;20037;-78
2021/11/02 01:51:25;;;;;;;48.05;5.40;;;;;;;;;;5051660;28;20067;-78
2021/11/02 01:53:51;;;;;;;12.07;5.25;;;;;;;;;;5053754;28;20601;-78
2021/11/02 01:56:18;;;;;;;10.90;5.13;;;;;;;;;;5052283;28;20029;-77
2021/11/02 01:58:47;;;;;;;10.25;4.70;;;;;;;;;;5035802;28;20029;-78
2021/11/02 02:01:24;;;;;;;14.88;5.68;;;;;;;;;;5052169;28;20422;-78
2021/11/02 02:04:36;;;;;;;14.93;5.32;;;;;;;;;;5051884;28;20037;-77
2021/11/02 02:07:08;;;;;;;12.00;4.82;;;;;;;;;;5048118;28;20048;-77
2021/11/02 02:10:01;;;;;;;17.13;6.07;;;;;;;;;;5053696;28;20037;-77
2021/11/02 02:12:56;;;;;;;18.65;4.80;;;;;;;;;;5052724;28;20119;-78
2021/11/02 02:15:34;;;;;;;33.20;7.90;;;;;;;;;;5038912;28;20061;-78
2021/11/02 02:18:19;;;;;;;13.48;6.82;;;;;;;;;;5045974;28;20391;-78
2021/11/02 02:21:27;;;;;;;19.13;6.43;;;;;;;;;;5037526;28;20040;-78
2021/11/02 02:24:10;;;;;;;78.68;7.72;;;;;;;;;;5051169;28;20394;-79
2021/11/02 02:27:00;;;;;;;237.63;9.50;;;;;;;;;;5058198;28;20033;-78
2021/11/02 02:29:26;;;;;;;18.60;6.97;;;;;;;;;;5058384;28;20452;-78
2021/11/02 02:31:54;;;;;;;14.45;5.75;;;;;;;;;;5058585;28;20050;-78
2021/11/02 02:34:21;;;;;;;20.50;6.32;;;;;;;;;;5058386;28;20498;-78
2021/11/02 02:36:51;;;;;;;11.80;6.32;;;;;;;;;;5058608;28;20029;-78
2021/11/02 02:39:17;;;;;;;8.30;5.88;;;;;;;;;;5058374;28;20114;-78
2021/11/02 02:42:09;;;;;;;9.07;6.28;;;;;;;;;;5058876;28;20041;-78
2021/11/02 02:44:44;;;;;;;12.25;5.97;;;;;;;;;;5058542;28;20513;-78
2021/11/02 02:47:10;;;;;;;24.98;6.93;;;;;;;;;;5058574;28;20094;-78
2021/11/02 02:49:36;;;;;;;15.23;6.75;;;;;;;;;;5062888;28;20028;-78
2021/11/02 02:52:05;;;;;;;8.40;5.88;;;;;;;;;;5078647;28;20410;-78
2021/11/02 02:54:30;;;;;;;15.40;5.82;;;;;;;;;;5078600;28;20108;-78
2021/11/02 02:57:01;;;;;;;23.70;6.10;;;;;;;;;;5078536;28;20035;-78
2021/11/02 02:59:27;;;;;;;9.93;5.53;;;;;;;;;;5077674;28;20032;-79
2021/11/02 03:01:53;;;;;;;13.38;6.53;;;;;;;;;;5077103;28;20056;-79
2021/11/02 03:04:26;;;;;;;13.73;6.00;;;;;;;;;;5078637;28;20032;-78
2021/11/02 03:06:55;;;;;;;13.13;6.45;;;;;;;;;;5077353;28;20032;-79
2021/11/02 03:09:21;;;;;;;15.85;6.80;;;;;;;;;;5079115;28;20029;-78
2021/11/02 03:11:47;;;;;;;31.73;7.03;;;;;;;;;;5078644;28;20036;-78
2021/11/02 03:14:22;;;;;;;11.43;6.75;;;;;;;;;;5078451;28;20037;-79
2021/11/02 03:17:26;;;;;;;7.90;5.45;;;;;;;;;;5082050;28;20046;-79
2021/11/02 03:55:42;;;;;;;6.30;4.90;;;;;;;;;;5054296;28;20037;-77
2021/11/02 03:58:16;;;;;;;7.53;5.32;;;;;;;;;;5037644;28;20041;-78
2021/11/02 04:28:13;;;;;;;6.05;4.57;;;;;;;;;;5055409;28;20502;-77
2021/11/02 05:20:44;;;;;;;8.68;5.20;;;;;;;;;;5052576;28;20033;-77
2021/11/02 05:48:13;;;;;;;9.40;5.32;;;;;;;;;;5052389;28;20037;-77
2021/11/02 05:56:25;;;;;;;13.48;6.28;;;;;;;;;;5051252;28;20475;-77
2021/11/02 06:07:47;;;;;;;7.88;5.88;;;;;;;;;;5053435;28;20045;-77
2021/11/02 06:29:28;;;;;;;11.20;6.28;;;;;;;;;;5052070;28;20037;-77
2021/11/02 06:32:01;;;;;;;11.65;6.25;;;;;;;;;;5051837;28;20044;-78
2021/11/02 06:34:44;;;;;;;16.90;6.40;;;;;;;;;;5053388;28;20044;-77
2021/11/02 07:19:15;;;;;;;18.17;7.45;;;;;;;;;;5036011;28;20029;-77
2021/11/02 07:22:40;;;;;;;9.90;7.40;;;;;;;;;;5035976;28;20044;-77
2021/11/02 07:24:42;;;;;;;11.40;7.57;;;;;;;;;;5034746;28;20057;-77
2021/11/02 08:47:41;;;;;;;13.15;7.55;;;;;;;;;;5037297;28;20399;-78
2021/11/02 08:50:08;;;;;;;12.90;8.20;;;;;;;;;;5036162;28;20037;-79
2021/11/02 08:52:36;;;;;;;11.18;8.25;;;;;;;;;;5036395;28;20033;-78
2021/11/02 08:55:04;;;;;;;8.90;7.30;;;;;;;;;;5037137;28;20108;-78
2021/11/02 08:57:30;;;;;;;17.90;8.75;;;;;;;;;;5037166;28;20037;-78
2021/11/02 08:59:56;;;;;;;10.18;7.53;;;;;;;;;;5036022;28;20135;-77
2021/11/02 09:02:23;;;;;;;11.07;8.38;;;;;;;;;;5054384;28;20453;-78
2021/11/02 09:05:03;;;;;;;17.08;8.45;;;;;;;;;;5056960;28;20122;-78
2021/11/02 09:07:30;;;;;;;15.10;9.20;;;;;;;;;;5053048;28;20445;-77
2021/11/02 09:09:58;;;;;;;12.20;9.20;;;;;;;;;;5053888;28;20494;-77
2021/11/02 09:12:28;;;;;;;18.48;11.32;;;;;;;;;;5052445;28;20559;-77
2021/11/02 09:14:56;;;;;;;16.30;10.60;;;;;;;;;;5053915;28;20037;-77
2021/11/02 09:17:47;;;;;;;13.27;10.40;;;;;;;;;;5052561;28;20041;-77
2021/11/02 09:20:17;;;;;;;16.10;10.85;;;;;;;;;;5053832;28;20382;-77
2021/11/02 09:22:44;;;;;;;13.18;9.68;;;;;;;;;;5058390;28;20025;-76
2021/11/02 09:25:10;;;;;;;14.40;9.95;;;;;;;;;;5051217;28;20045;-76
2021/11/02 09:27:40;;;;;;;17.35;10.70;;;;;;;;;;5052654;28;20049;-77
2021/11/02 09:30:07;;;;;;;14.50;9.25;;;;;;;;;;5053720;28;20534;-77
2021/11/02 09:32:36;;;;;;;14.52;9.13;;;;;;;;;;5051977;28;20467;-77
2021/11/02 09:35:01;;;;;;;13.95;9.27;;;;;;;;;;5055253;28;20171;-77
2021/11/02 09:37:35;;;;;;;16.63;9.45;;;;;;;;;;5055320;28;20080;-77
2021/11/02 09:40:26;;;;;;;10.95;8.25;;;;;;;;;;5052169;28;20091;-77
2021/11/02 09:42:58;;;;;;;13.75;9.38;;;;;;;;;;5050875;28;20437;-77
2021/11/02 09:45:46;;;;;;;18.90;9.75;;;;;;;;;;5051917;28;20517;-77
2021/11/02 09:48:53;;;;;;;13.57;9.03;;;;;;;;;;5052059;28;20044;-77
2021/11/02 09:51:33;;;;;;;14.80;9.40;;;;;;;;;;5031395;28;20072;-76
2021/11/02 09:54:12;;;;;;;13.25;8.80;;;;;;;;;;5030718;28;20077;-77
2021/11/02 09:56:53;;;;;;;15.52;10.23;;;;;;;;;;5031465;28;20503;-77
2021/11/02 09:59:43;;;;;;;13.18;9.82;;;;;;;;;;5033268;28;20406;-77
2021/11/02 10:02:51;;;;;;;14.07;10.57;;;;;;;;;;5037657;28;20029;-77
2021/11/02 10:05:22;;;;;;;14.60;9.80;;;;;;;;;;5034760;28;20371;-76
2021/11/02 10:08:01;;;;;;;17.27;9.70;;;;;;;;;;5051148;28;20082;-76
2021/11/02 10:10:59;;;;;;;20.10;10.95;;;;;;;;;;5051815;28;20029;-77
2021/11/02 10:13:34;;;;;;;17.77;10.38;;;;;;;;;;5051757;28;20044;-76
2021/11/02 10:16:11;;;;;;;20.27;9.88;;;;;;;;;;5051904;28;20041;-76
2021/11/02 10:18:56;;;;;;;21.30;12.07;;;;;;;;;;5053051;28;20364;-76
2021/11/02 10:21:56;;;;;;;14.85;10.00;;;;;;;;;;5052607;28;20025;-76
2021/11/02 10:24:44;;;;;;;15.35;8.88;;;;;;;;;;5032986;28;20077;-76
2021/11/02 10:27:39;;;;;;;13.20;7.45;;;;;;;;;;5031500;28;20037;-76
2021/11/02 10:30:33;;;;;;;10.82;7.78;;;;;;;;;;5033016;28;20069;-76
2021/11/02 10:33:14;;;;;;;17.70;7.30;;;;;;;;;;5034093;28;20033;-76
2021/11/02 10:35:51;;;;;;;11.88;7.55;;;;;;;;;;5053786;28;20406;-77
2021/11/02 10:38:28;;;;;;;9.02;5.82;;;;;;;;;;5055270;28;20033;-76
2021/11/02 10:40:58;;;;;;;12.02;6.80;;;;;;;;;;5056483;28;20041;-76
2021/11/02 10:43:56;;;;;;;15.73;7.22;;;;;;;;;;5055311;28;20394;-76
2021/11/02 10:46:31;;;;;;;17.95;5.20;;;;;;;;;;5056776;28;20079;-76
2021/11/02 10:49:06;;;;;;;15.95;4.95;;;;;;;;;;5054406;28;20542;-76
2021/11/02 10:51:42;;;;;;;11.00;4.60;;;;;;;;;;5055597;28;20552;-77
2021/11/02 10:54:32;;;;;;;9.15;4.38;;;;;;;;;;5055542;28;20033;-76
2021/11/02 10:57:14;;;;;;;6.82;3.85;;;;;;;;;;5056479;28;20091;-77
2021/11/02 10:59:45;;;;;;;10.40;4.20;;;;;;;;;;5055556;28;20047;-76
2021/11/02 11:02:30;;;;;;;9.00;3.60;;;;;;;;;;5054355;28;20040;-76
2021/11/02 11:04:57;;;;;;;5.65;3.13;;;;;;;;;;5053357;28;20136;-77
2021/11/02 11:07:25;;;;;;;4.28;2.75;;;;;;;;;;5055929;28;20072;-76
2021/11/02 11:09:52;;;;;;;7.35;3.15;;;;;;;;;;5055102;28;20033;-75
2021/11/02 11:12:21;;;;;;;4.65;2.70;;;;;;;;;;5056241;28;20044;-76
2021/11/02 11:14:52;;;;;;;3.63;2.05;;;;;;;;;;5055974;28;20039;-75
2021/11/02 11:17:26;;;;;;;3.97;2.40;;;;;;;;;;5055847;28;20544;-77
2021/11/02 11:20:11;;;;;;;5.55;2.22;;;;;;;;;;5054542;28;20079;-76
2021/11/02 11:22:40;;;;;;;3.08;2.00;;;;;;;;;;5056522;28;20108;-76
2021/11/02 11:25:10;;;;;;;4.50;2.30;;;;;;;;;;5054355;28;20032;-77
2021/11/02 11:27:43;;;;;;;2.78;1.85;;;;;;;;;;5054823;28;20111;-77
2021/11/02 11:30:08;;;;;;;3.13;2.00;;;;;;;;;;5055890;28;20041;-78
2021/11/02 11:32:38;;;;;;;4.75;2.15;;;;;;;;;;5044618;28;20032;-75
2021/11/02 11:35:05;;;;;;;3.70;2.10;;;;;;;;;;5035607;28;20029;-76
2021/11/02 11:37:38;;;;;;;4.05;2.13;;;;;;;;;;5035559;28;20525;-76
2021/11/02 11:40:06;;;;;;;7.07;2.28;;;;;;;;;;5048731;28;20547;-76
2021/11/02 11:42:33;;;;;;;2.92;2.00;;;;;;;;;;5036604;28;20049;-76
2021/11/02 11:45:21;;;;;;;2.83;1.80;;;;;;;;;;5054081;28;20037;-77
2021/11/02 11:47:47;;;;;;;3.17;2.00;;;;;;;;;;5055246;28;20064;-76
2021/11/02 11:50:17;;;;;;;4.25;2.55;;;;;;;;;;5057182;28;20398;-77
2021/11/02 11:52:48;;;;;;;3.70;2.05;;;;;;;;;;5054737;28;20403;-77
2021/11/02 11:55:26;;;;;;;3.47;1.75;;;;;;;;;;5054273;28;20028;-77
2021/11/02 11:58:07;;;;;;;2.45;1.92;;;;;;;;;;5056823;28;20041;-78
2021/11/02 12:00:36;;;;;;;2.78;1.70;;;;;;;;;;5054492;28;20537;-77
2021/11/02 12:03:10;;;;;;;2.90;1.98;;;;;;;;;;5056041;28;20067;-79
2021/11/02 12:05:56;;;;;;;5.68;1.80;;;;;;;;;;5059307;28;20531;-78
2021/11/02 12:08:23;;;;;;;3.37;1.90;;;;;;;;;;5055361;28;20487;-76
2021/11/02 12:10:52;;;;;;;2.65;1.40;;;;;;;;;;5038154;28;20452;-76
2021/11/02 12:13:18;;;;;;;2.63;1.77;;;;;;;;;;5054573;28;20075;-76
2021/11/02 12:15:48;;;;;;;5.55;1.63;;;;;;;;;;5053920;28;20060;-77
2021/11/02 12:18:19;;;;;;;5.90;1.80;;;;;;;;;;5053420;28;20562;-77
2021/11/02 12:20:50;;;;;;;2.22;1.40;;;;;;;;;;5052937;28;20033;-76
2021/11/02 12:23:30;;;;;;;3.10;1.75;;;;;;;;;;5053188;28;20041;-76
2021/11/02 12:25:57;;;;;;;3.35;1.70;;;;;;;;;;5053251;28;20041;-75
2021/11/02 12:28:42;;;;;;;4.47;1.95;;;;;;;;;;5055010;28;20091;-76
2021/11/02 12:31:11;;;;;;;5.28;2.40;;;;;;;;;;5053678;28;20033;-75
2021/11/02 12:33:42;;;;;;;3.03;1.75;;;;;;;;;;5054744;28;20029;-76
2021/11/02 12:36:08;;;;;;;6.82;2.03;;;;;;;;;;5053932;28;20344;-75
2021/11/02 12:38:40;;;;;;;3.65;1.90;;;;;;;;;;5054748;28;20033;-76
2021/11/02 12:41:20;;;;;;;4.25;2.13;;;;;;;;;;5053618;28;20052;-75
2021/11/02 12:43:59;;;;;;;3.00;1.85;;;;;;;;;;5054651;28;20037;-76
2021/11/02 12:46:25;;;;;;;3.35;1.85;;;;;;;;;;5054797;28;20035;-76
2021/11/02 12:48:52;;;;;;;2.80;1.60;;;;;;;;;;5054972;28;20036;-76
2021/11/02 12:51:21;;;;;;;3.13;1.52;;;;;;;;;;5054678;28;20040;-76
2021/11/02 12:53:52;;;;;;;2.38;1.30;;;;;;;;;;5054521;28;20482;-76
2021/11/02 12:56:21;;;;;;;2.03;1.30;;;;;;;;;;5053788;28;20044;-75
2021/11/02 12:58:51;;;;;;;5.30;1.38;;;;;;;;;;5054175;28;20060;-76
2021/11/02 13:01:37;;;;;;;2.22;1.10;;;;;;;;;;5054175;28;20490;-76
2021/11/02 13:04:09;;;;;;;;;;;;;;;;;;5053332;28;20025;-76
2021/11/02 13:06:51;;;;;;;1.98;1.25;;;;;;;;;;5054297;28;19970;-75
2021/11/02 13:09:20;;;;;;;1.95;0.80;;;;;;;;;;5053207;28;20123;-76
2021/11/02 13:11:46;;;;;;;1.48;0.80;;;;;;;;;;5054417;28;20040;-76
2021/11/02 13:14:15;;;;;;;1.77;0.75;;;;;;;;;;5053074;28;20025;-75
2021/11/02 13:17:00;;;;;;;1.60;0.80;;;;;;;;;;5054359;28;20035;-76
2021/11/02 13:19:35;;;;;;;0.98;0.68;;;;;;;;;;5054415;28;20037;-76
2021/11/02 13:22:15;;;;;;;1.63;0.90;;;;;;;;;;5055063;28;20414;-76
2021/11/02 13:24:55;;;;;;;2.33;0.70;;;;;;;;;;5053204;28;20075;-76
2021/11/02 13:27:30;;;;;;;2.22;0.90;;;;;;;;;;5054498;28;20044;-75
2021/11/02 13:29:55;;;;;;;1.00;0.55;;;;;;;;;;5054210;28;20127;-75
2021/11/02 13:32:21;;;;;;;5.68;0.95;;;;;;;;;;5053388;28;20091;-75
2021/11/02 13:34:46;;;;;;;1.98;0.90;;;;;;;;;;5054619;28;20360;-75
2021/11/02 13:37:18;;;;;;;5.72;0.80;;;;;;;;;;5053430;28;20059;-76
2021/11/02 13:39:51;;;;;;;4.28;0.70;;;;;;;;;;5054143;28;20110;-75
2021/11/02 13:42:17;;;;;;;1.00;0.43;;;;;;;;;;5053273;28;20059;-75
2021/11/02 13:44:45;;;;;;;2.45;1.20;;;;;;;;;;5053923;28;20032;-75
2021/11/02 13:47:11;;;;;;;1.27;0.82;;;;;;;;;;5054234;28;20375;-76
2021/11/02 13:49:37;;;;;;;1.67;0.68;;;;;;;;;;5054137;28;20124;-76
2021/11/02 13:52:03;;;;;;;0.63;0.60;;;;;;;;;;5053890;28;20043;-75
2021/11/02 13:54:30;;;;;;;2.10;0.60;;;;;;;;;;5054184;28;20079;-76
2021/11/02 13:56:55;;;;;;;5.25;2.78;;;;;;;;;;5052971;28;20037;-75
2021/11/02 13:59:21;;;;;;;6.38;3.58;;;;;;;;;;5053493;28;20040;-75
2021/11/02 14:01:49;;;;;;;2.42;1.40;;;;;;;;;;5053404;28;20043;-76
2021/11/02 14:04:35;;;;;;;2.13;1.10;;;;;;;;;;5052809;28;20043;-75
2021/11/02 14:07:12;;;;;;;3.50;0.77;;;;;;;;;;5053288;28;20041;-75
2021/11/02 14:10:05;;;;;;;1.85;1.00;;;;;;;;;;5050911;28;20475;-75
2021/11/02 14:12:32;;;;;;;2.63;0.73;;;;;;;;;;5056420;28;20031;-75
2021/11/02 14:15:10;;;;;;;1.50;0.82;;;;;;;;;;5057920;28;20098;-76
2021/11/02 14:17:37;;;;;;;1.25;0.80;;;;;;;;;;5057854;28;20441;-75
2021/11/02 14:20:04;;;;;;;2.15;0.73;;;;;;;;;;5057792;28;20095;-75
2021/11/02 14:22:44;;;;;;;2.10;0.70;;;;;;;;;;5057413;28;20028;-75
2021/11/02 14:25:33;;;;;;;5.38;0.73;;;;;;;;;;5057365;28;20120;-76
2021/11/02 14:28:02;;;;;;;1.92;0.88;;;;;;;;;;5057397;28;20095;-75
2021/11/02 14:30:31;;;;;;;1.98;0.80;;;;;;;;;;5057353;28;20478;-75
2021/11/02 14:32:57;;;;;;;1.73;0.65;;;;;;;;;;5057493;28;20076;-76
2021/11/02 14:35:40;;;;;;;0.90;0.70;;;;;;;;;;5057684;28;20106;-75
2021/11/02 14:38:12;;;;;;;4.28;1.10;;;;;;;;;;5056470;28;20029;-76
2021/11/02 14:40:39;;;;;;;1.33;0.80;;;;;;;;;;5056323;28;20035;-75
2021/11/02 14:43:14;;;;;;;4.78;1.50;;;;;;;;;;5055939;28;20044;-77
2021/11/02 14:45:44;;;;;;;1.20;0.70;;;;;;;;;;5057567;28;20375;-75
2021/11/02 14:48:24;;;;;;;1.13;0.55;;;;;;;;;;5056944;28;20064;-76
2021/11/02 14:50:51;;;;;;;2.28;0.43;;;;;;;;;;5055834;28;20379;-76
2021/11/02 14:53:34;;;;;;;7.57;2.30;;;;;;;;;;5057947;28;20416;-76
2021/11/02 14:56:33;;;;;;;1.20;0.50;;;;;;;;;;5056278;28;20065;-76
2021/11/02 14:59:06;;;;;;;3.72;0.93;;;;;;;;;;5055717;28;20049;-76
2021/11/02 15:01:38;;;;;;;1.85;0.90;;;;;;;;;;5057295;28;20037;-76
2021/11/02 15:04:14;;;;;;;1.73;1.02;;;;;;;;;;5057075;28;20402;-76
2021/11/02 15:06:42;;;;;;;1.85;0.80;;;;;;;;;;5055801;28;20131;-76
2021/11/02 15:09:12;;;;;;;1.83;0.90;;;;;;;;;;5057248;28;20051;-76
2021/11/02 15:11:44;;;;;;;2.50;0.95;;;;;;;;;;5048300;28;20082;-76
2021/11/02 15:14:16;;;;;;;4.20;1.40;;;;;;;;;;5051406;28;20486;-77
2021/11/02 15:16:47;;;;;;;2.08;0.70;;;;;;;;;;5048904;28;20547;-78
2021/11/02 15:19:14;;;;;;;5.22;2.90;;;;;;;;;;5059521;28;20068;-78
2021/11/02 15:21:55;;;;;;;5.13;2.00;;;;;;;;;;5054769;28;20041;-78
2021/11/02 15:24:25;;;;;;;6.43;1.33;;;;;;;;;;5063780;28;20051;-78
2021/11/02 15:26:55;;;;;;;5.50;0.95;;;;;;;;;;5062896;28;20101;-78
2021/11/02 15:29:26;;;;;;;3.88;1.75;;;;;;;;;;5062906;28;20032;-78
2021/11/02 15:31:55;;;;;;;2.83;1.20;;;;;;;;;;5054833;28;20100;-78
2021/11/02 15:34:21;;;;;;;7.50;3.20;;;;;;;;;;5060422;28;20368;-78
2021/11/02 15:36:46;;;;;;;11.90;7.10;;;;;;;;;;5070275;28;20036;-78
2021/11/02 15:39:12;;;;;;;49.30;31.65;;;;;;;;;;5050567;28;20044;-78
2021/11/02 15:41:38;;;;;;;26.40;14.93;;;;;;;;;;5055826;28;20104;-78
2021/11/02 15:44:08;;;;;;;21.27;12.15;;;;;;;;;;5060886;28;20112;-78
2021/11/02 15:46:37;;;;;;;12.50;7.43;;;;;;;;;;5060733;28;20036;-78
2021/11/02 15:49:05;;;;;;;13.00;6.68;;;;;;;;;;5053276;28;20029;-78
2021/11/02 15:51:34;;;;;;;7.95;4.55;;;;;;;;;;5048838;28;20067;-78
2021/11/02 15:54:05;;;;;;;7.55;3.67;;;;;;;;;;5056315;28;20044;-78
2021/11/02 15:56:30;;;;;;;6.03;3.45;;;;;;;;;;5049766;28;20040;-78
2021/11/02 15:59:01;;;;;;;5.18;2.85;;;;;;;;;;5060161;28;20402;-78
2021/11/02 16:01:32;;;;;;;3.92;1.70;;;;;;;;;;5059545;28;20037;-78
2021/11/02 16:04:10;;;;;;;5.32;1.42;;;;;;;;;;5054023;28;20037;-77
2021/11/02 16:07:01;;;;;;;1.63;1.40;;;;;;;;;;5039782;28;20034;-77
2021/11/02 16:09:48;;;;;;;12.07;1.80;;;;;;;;;;5046035;28;20042;-78
2021/11/02 16:12:16;;;;;;;5.40;1.70;;;;;;;;;;5057610;28;20029;-77
2021/11/02 16:14:53;;;;;;;5.13;1.13;;;;;;;;;;5058307;28;20029;-78
2021/11/02 16:17:21;;;;;;;5.65;1.00;;;;;;;;;;5053832;28;20433;-77
2021/11/02 16:19:48;;;;;;;3.35;0.80;;;;;;;;;;5047497;28;20060;-77
2021/11/02 16:22:16;;;;;;;3.45;1.23;;;;;;;;;;5049146;28;20546;-77
2021/11/02 16:24:42;;;;;;;3.92;0.80;;;;;;;;;;5048307;28;20093;-77
2021/11/02 16:27:22;;;;;;;3.83;1.00;;;;;;;;;;5059967;28;20041;-78
2021/11/02 16:29:50;;;;;;;6.40;0.98;;;;;;;;;;5053322;28;20033;-77
2021/11/02 16:32:27;;;;;;;1.92;0.70;;;;;;;;;;5054027;28;20037;-77
2021/11/02 16:34:54;;;;;;;9.45;0.90;;;;;;;;;;5056998;28;20140;-78
2021/11/02 16:37:48;;;;;;;6.75;0.80;;;;;;;;;;5043659;28;20033;-77
2021/11/02 16:40:24;;;;;;;3.72;2.10;;;;;;;;;;5041689;28;20128;-77
2021/11/02 16:42:58;;;;;;;7.97;2.40;;;;;;;;;;5040206;28;20045;-77
2021/11/02 16:45:30;;;;;;;4.72;2.03;;;;;;;;;;5051611;28;20032;-77
2021/11/02 16:48:00;;;;;;;3.65;1.67;;;;;;;;;;5057912;28;20048;-76
2021/11/02 16:50:35;;;;;;;6.28;1.55;;;;;;;;;;5034921;28;20061;-77
2021/11/02 16:53:26;;;;;;;3.40;1.80;;;;;;;;;;5045909;28;20029;-78
2021/11/02 16:55:53;;;;;;;2.95;1.25;;;;;;;;;;5065178;28;20040;-78
2021/11/02 16:58:18;;;;;;;2.60;1.30;;;;;;;;;;5069850;28;20033;-78
2021/11/02 17:00:45;;;;;;;4.05;1.83;;;;;;;;;;5072580;28;20100;-78
2021/11/02 17:03:13;;;;;;;5.30;2.50;;;;;;;;;;5071630;28;20098;-78
2021/11/02 17:05:40;;;;;;;6.38;2.13;;;;;;;;;;5071940;28;20051;-78
2021/11/02 17:08:11;;;;;;;8.63;2.50;;;;;;;;;;5071241;28;20056;-78
2021/11/02 17:10:38;;;;;;;9.00;3.17;;;;;;;;;;5070633;28;20044;-78
2021/11/02 17:13:15;;;;;;;2.88;2.03;;;;;;;;;;5071933;28;20037;-78
2021/11/02 17:15:48;;;;;;;2.58;1.63;;;;;;;;;;5070879;28;20044;-78
2021/11/02 17:18:16;;;;;;;2.47;1.42;;;;;;;;;;5071423;28;20048;-78
2021/11/02 17:20:47;;;;;;;4.03;1.00;;;;;;;;;;5069007;28;20072;-78
2021/11/02 17:23:19;;;;;;;6.00;2.25;;;;;;;;;;5067436;28;20041;-78
2021/11/02 17:25:46;;;;;;;8.15;1.95;;;;;;;;;;5068477;28;20059;-78
2021/11/02 17:28:12;;;;;;;5.50;2.63;;;;;;;;;;5070669;28;20040;-78
2021/11/02 17:30:37;;;;;;;3.97;2.17;;;;;;;;;;5069828;28;20505;-78
2021/11/02 17:33:04;;;;;;;5.43;1.10;;;;;;;;;;5069490;28;20032;-78
2021/11/02 17:35:30;;;;;;;2.53;1.40;;;;;;;;;;5067733;28;20518;-78
2021/11/02 17:37:57;;;;;;;6.75;1.30;;;;;;;;;;5067834;28;20103;-78
2021/11/02 17:40:24;;;;;;;2.47;0.93;;;;;;;;;;5068735;28;20048;-78
2021/11/02 17:42:52;;;;;;;2.70;0.77;;;;;;;;;;5067246;28;20510;-78
2021/11/02 17:45:19;;;;;;;4.95;0.90;;;;;;;;;;5067337;28;20037;-78
2021/11/02 17:47:46;;;;;;;4.82;0.93;;;;;;;;;;5067577;28;20443;-78
2021/11/02 17:50:16;;;;;;;10.43;1.30;;;;;;;;;;5068624;28;20047;-78
2021/11/02 17:52:43;;;;;;;5.57;1.20;;;;;;;;;;5068802;28;20029;-78
2021/11/02 17:55:11;;;;;;;2.25;0.95;;;;;;;;;;5069804;28;20033;-78
2021/11/02 17:57:41;;;;;;;1.52;1.10;;;;;;;;;;5069770;28;20068;-78
2021/11/02 18:00:09;;;;;;;2.97;1.00;;;;;;;;;;5069669;28;20044;-78
2021/11/02 18:02:36;;;;;;;4.22;1.30;;;;;;;;;;5069010;28;20041;-78
2021/11/02 18:05:02;;;;;;;2.40;1.30;;;;;;;;;;5069433;28;20033;-78
2021/11/02 18:07:31;;;;;;;1.85;1.30;;;;;;;;;;5069420;28;20083;-78
2021/11/02 18:09:57;;;;;;;9.93;1.50;;;;;;;;;;5069511;28;20043;-78
2021/11/02 18:12:29;;;;;;;2.08;1.00;;;;;;;;;;5068730;28;20036;-78
2021/11/02 18:14:55;;;;;;;1.70;1.33;;;;;;;;;;5064432;28;20029;-78
2021/11/02 18:17:21;;;;;;;3.08;1.30;;;;;;;;;;5058745;28;20037;-78
2021/11/02 18:19:56;;;;;;;9.70;1.60;;;;;;;;;;5054894;28;20113;-78
2021/11/02 18:22:23;;;;;;;2.72;1.30;;;;;;;;;;5054625;28;20051;-78
2021/11/02 18:24:50;;;;;;;7.32;2.22;;;;;;;;;;5054227;28;20109;-78
2021/11/02 18:27:18;;;;;;;6.75;1.33;;;;;;;;;;5058951;28;20105;-78
2021/11/02 18:29:45;;;;;;;9.27;2.65;;;;;;;;;;5057974;28;20048;-78
2021/11/02 18:32:11;;;;;;;5.93;3.03;;;;;;;;;;5052714;28;20379;-78
2021/11/02 18:34:37;;;;;;;4.82;2.45;;;;;;;;;;5048018;28;20048;-78
2021/11/02 18:37:03;;;;;;;5.10;3.10;;;;;;;;;;5053162;28;20026;-79
2021/11/02 18:39:31;;;;;;;8.98;4.88;;;;;;;;;;5052516;28;20132;-78
2021/11/02 18:41:57;;;;;;;7.78;2.90;;;;;;;;;;5054625;28;20109;-78
2021/11/02 18:44:22;;;;;;;7.68;2.53;;;;;;;;;;5042303;28;20061;-79
2021/11/02 18:46:49;;;;;;;4.80;2.10;;;;;;;;;;5040664;28;20120;-77
2021/11/02 18:49:14;;;;;;;7.70;1.92;;;;;;;;;;5042461;28;20044;-78
2021/11/02 18:51:43;;;;;;;5.25;2.28;;;;;;;;;;5042003;28;20033;-79
2021/11/02 18:54:09;;;;;;;11.52;3.83;;;;;;;;;;5041999;28;20116;-78
2021/11/02 18:56:35;;;;;;;9.13;3.85;;;;;;;;;;5041943;28;20041;-78
2021/11/02 18:59:00;;;;;;;9.65;3.92;;;;;;;;;;5043733;28;20048;-78
2021/11/02 19:01:26;;;;;;;12.50;3.95;;;;;;;;;;5041374;28;20171;-78
2021/11/02 19:03:52;;;;;;;7.85;4.38;;;;;;;;;;5043718;28;20474;-80
2021/11/02 19:06:19;;;;;;;12.73;6.68;;;;;;;;;;5040145;28;20037;-78
2021/11/02 19:08:44;;;;;;;13.95;7.43;;;;;;;;;;5056371;28;20059;-77
2021/11/02 19:11:09;;;;;;;10.73;5.72;;;;;;;;;;5057600;28;20178;-77
2021/11/02 19:13:35;;;;;;;9.23;4.03;;;;;;;;;;5057618;28;20029;-77
2021/11/02 19:16:01;;;;;;;7.95;4.18;;;;;;;;;;5061807;28;20040;-78
2021/11/02 19:18:26;;;;;;;7.82;3.67;;;;;;;;;;5060896;28;20177;-78
2021/11/02 19:20:52;;;;;;;8.05;3.42;;;;;;;;;;5060054;28;20037;-78
2021/11/02 19:23:17;;;;;;;12.82;4.80;;;;;;;;;;5062718;28;20068;-78
2021/11/02 19:25:43;;;;;;;6.38;3.33;;;;;;;;;;5060172;28;20539;-77
2021/11/02 19:28:09;;;;;;;6.07;2.30;;;;;;;;;;5061755;28;20041;-78
2021/11/02 19:30:36;;;;;;;3.90;2.50;;;;;;;;;;5058902;28;20402;-77
2021/11/02 19:33:04;;;;;;;3.33;2.10;;;;;;;;;;5050195;28;20024;-78
2021/11/02 19:35:29;;;;;;;6.88;2.80;;;;;;;;;;5048638;28;20041;-78
2021/11/02 19:37:55;;;;;;;8.38;2.25;;;;;;;;;;5048111;28;20062;-78
2021/11/02 19:40:20;;;;;;;5.60;2.33;;;;;;;;;;5048489;28;20474;-78
2021/11/02 19:42:46;;;;;;;3.92;2.30;;;;;;;;;;5047656;28;20575;-78
2021/11/02 19:45:14;;;;;;;5.22;2.70;;;;;;;;;;5051108;28;20029;-78
2021/11/02 19:47:49;;;;;;;5.97;2.83;;;;;;;;;;5047331;28;20452;-79
2021/11/02 19:50:16;;;;;;;4.13;2.45;;;;;;;;;;5049071;28;20044;-79
2021/11/02 19:52:50;;;;;;;5.60;2.50;;;;;;;;;;5047987;28;20100;-79
2021/11/02 19:55:20;;;;;;;7.82;2.83;;;;;;;;;;5033266;28;20463;-79
2021/11/02 19:57:46;;;;;;;4.85;3.13;;;;;;;;;;5040668;28;20032;-79
2021/11/02 20:00:15;;;;;;;6.50;2.40;;;;;;;;;;5053198;28;20041;-79